createdAt,value
2022-09-16T00:00:35.784Z,13.10
2022-09-16T00:03:03.206Z,13.10
2022-09-16T00:05:30.270Z,13.10
2022-09-16T00:07:57.132Z,13.10
2022-09-16T00:10:24.170Z,13.10
2022-09-16T00:12:51.516Z,13.10
2022-09-16T00:15:18.971Z,13.10
2022-09-16T00:17:45.811Z,13.10
2022-09-16T00:20:13.486Z,13.10
2022-09-16T00:22:40.401Z,13.10
2022-09-16T00:25:07.716Z,13.10
2022-09-16T00:27:34.614Z,13.20
2022-09-16T00:30:01.432Z,13.10
2022-09-16T00:32:28.185Z,13.20
2022-09-16T00:34:54.944Z,13.20
2022-09-16T00:37:21.785Z,13.20
2022-09-16T00:39:49.313Z,13.20
2022-09-16T00:42:17.196Z,13.20
2022-09-16T00:44:59.830Z,13.20
2022-09-16T00:47:51.656Z,13.20
2022-09-16T00:50:30.665Z,13.10
2022-09-16T00:52:59.874Z,13.10
2022-09-16T00:55:30.016Z,13.20
2022-09-16T00:58:10.353Z,13.10
2022-09-16T01:00:38.291Z,13.10
2022-09-16T01:03:06.198Z,13.10
2022-09-16T01:05:34.174Z,13.10
2022-09-16T01:08:01.405Z,13.10
2022-09-16T01:10:28.383Z,13.00
2022-09-16T01:13:05.199Z,13.00
2022-09-16T01:15:48.243Z,13.00
2022-09-16T01:18:36.924Z,12.90
2022-09-16T01:21:27.924Z,12.90
2022-09-16T01:24:10.806Z,12.90
2022-09-16T01:27:21.020Z,12.90
2022-09-16T01:30:12.216Z,12.90
2022-09-16T01:33:05.486Z,12.90
2022-09-16T01:35:39.389Z,12.90
2022-09-16T01:38:28.648Z,12.90
2022-09-16T01:41:16.903Z,12.90
2022-09-16T01:43:55.889Z,12.90
2022-09-16T01:46:25.912Z,12.80
2022-09-16T01:49:26.250Z,12.80
2022-09-16T01:52:23.859Z,12.80
2022-09-16T01:55:07.876Z,12.70
2022-09-16T01:57:54.094Z,12.70
2022-09-16T02:00:21.752Z,12.60
2022-09-16T02:03:11.931Z,12.70
2022-09-16T02:05:50.859Z,12.60
2022-09-16T02:08:28.769Z,12.60
2022-09-16T02:11:01.453Z,12.70
2022-09-16T02:13:35.864Z,12.70
2022-09-16T02:16:08.729Z,12.60
2022-09-16T02:18:39.080Z,12.60
2022-09-16T02:21:09.003Z,12.60
2022-09-16T02:23:44.393Z,12.60
2022-09-16T02:26:15.896Z,12.60
2022-09-16T02:28:46.319Z,12.60
2022-09-16T02:31:14.634Z,12.60
2022-09-16T02:34:01.804Z,12.60
2022-09-16T02:36:30.083Z,12.60
2022-09-16T02:39:03.889Z,12.70
2022-09-16T02:41:30.749Z,12.70
2022-09-16T02:43:57.369Z,12.60
2022-09-16T02:47:06.830Z,12.60
2022-09-16T02:50:00.002Z,12.70
2022-09-16T02:52:42.285Z,12.60
2022-09-16T02:55:33.607Z,12.60
2022-09-16T02:58:00.761Z,12.60
2022-09-16T03:00:30.973Z,12.60
2022-09-16T03:02:58.174Z,12.60
2022-09-16T03:05:29.580Z,12.60
2022-09-16T03:07:57.572Z,12.50
2022-09-16T03:10:28.331Z,12.50
2022-09-16T03:13:18.466Z,12.50
2022-09-16T03:16:06.772Z,12.50
2022-09-16T03:19:09.616Z,12.50
2022-09-16T03:22:03.988Z,12.50
2022-09-16T03:24:50.919Z,12.50
2022-09-16T03:27:24.214Z,12.50
2022-09-16T03:30:01.916Z,12.50
2022-09-16T03:32:37.735Z,12.50
2022-09-16T03:35:35.816Z,12.40
2022-09-16T03:38:03.261Z,12.40
2022-09-16T03:40:32.608Z,12.40
2022-09-16T03:42:59.629Z,12.40
2022-09-16T03:45:26.681Z,12.30
2022-09-16T03:47:54.019Z,12.30
2022-09-16T03:50:21.370Z,12.30
2022-09-16T03:52:48.370Z,12.30
2022-09-16T03:55:16.847Z,12.30
2022-09-16T03:57:43.948Z,12.30
2022-09-16T04:00:11.531Z,12.30
2022-09-16T04:02:41.148Z,12.30
2022-09-16T04:05:08.987Z,12.30
2022-09-16T04:07:36.656Z,12.30
2022-09-16T04:10:05.143Z,12.20
2022-09-16T04:12:32.206Z,12.20
2022-09-16T04:15:00.908Z,12.20
2022-09-16T04:17:31.032Z,12.20
2022-09-16T04:19:58.034Z,12.10
2022-09-16T04:22:24.890Z,12.10
2022-09-16T04:24:51.780Z,12.10
2022-09-16T04:27:19.478Z,12.10
2022-09-16T04:29:46.547Z,12.10
2022-09-16T04:32:13.477Z,12.10
2022-09-16T04:34:40.538Z,12.10
2022-09-16T04:37:07.995Z,12.10
2022-09-16T04:39:34.858Z,12.10
2022-09-16T04:42:01.680Z,12.10
2022-09-16T04:44:30.135Z,12.10
2022-09-16T04:46:57.108Z,12.10
2022-09-16T04:49:24.156Z,12.00
2022-09-16T04:51:52.251Z,12.00
2022-09-16T04:54:19.384Z,12.00
2022-09-16T04:56:46.809Z,12.00
2022-09-16T04:59:13.757Z,12.00
2022-09-16T05:01:41.846Z,12.00
2022-09-16T05:04:11.702Z,12.00
2022-09-16T05:06:40.977Z,12.00
2022-09-16T05:09:09.726Z,12.10
2022-09-16T05:11:38.929Z,12.10
2022-09-16T05:14:16.653Z,12.10
2022-09-16T05:16:44.739Z,12.10
2022-09-16T05:19:13.179Z,12.10
2022-09-16T05:21:41.086Z,12.10
2022-09-16T05:24:10.562Z,12.10
2022-09-16T05:26:40.380Z,12.10
2022-09-16T05:29:10.616Z,12.10
2022-09-16T05:31:40.018Z,12.10
2022-09-16T05:34:18.566Z,12.20
2022-09-16T05:36:47.752Z,12.20
2022-09-16T05:39:25.355Z,12.10
2022-09-16T05:41:58.417Z,12.10
2022-09-16T05:44:26.743Z,12.10
2022-09-16T05:46:53.965Z,12.10
2022-09-16T05:49:21.429Z,12.10
2022-09-16T05:51:50.305Z,12.10
2022-09-16T05:54:18.686Z,12.10
2022-09-16T05:56:46.352Z,12.10
2022-09-16T05:59:14.516Z,12.10
2022-09-16T06:01:42.247Z,12.10
2022-09-16T06:04:12.469Z,12.10
2022-09-16T06:06:44.882Z,12.20
2022-09-16T06:09:21.141Z,12.20
2022-09-16T06:11:50.129Z,12.30
2022-09-16T06:14:18.527Z,12.30
2022-09-16T06:16:46.260Z,12.40
2022-09-16T06:19:17.622Z,12.50
2022-09-16T06:21:45.903Z,12.60
2022-09-16T06:24:14.696Z,12.80
2022-09-16T06:26:43.376Z,12.90
2022-09-16T06:29:11.475Z,13.00
2022-09-16T06:31:38.706Z,13.10
2022-09-16T06:34:07.466Z,13.30
2022-09-16T06:36:38.515Z,13.50
2022-09-16T06:39:07.514Z,13.80
2022-09-16T06:41:35.190Z,14.10
2022-09-16T06:44:02.436Z,14.40
2022-09-16T06:46:30.092Z,14.70
2022-09-16T06:49:01.571Z,14.80
2022-09-16T06:51:31.907Z,14.70
2022-09-16T06:54:04.972Z,14.80
2022-09-16T06:56:34.266Z,14.80
2022-09-16T06:59:01.637Z,14.90
2022-09-16T07:01:30.145Z,15.00
2022-09-16T07:03:58.539Z,15.00
2022-09-16T07:06:52.300Z,15.10
2022-09-16T07:09:16.929Z,15.10
2022-09-16T07:11:43.797Z,15.20
2022-09-16T07:14:10.938Z,15.20
2022-09-16T07:16:37.837Z,15.20
2022-09-16T07:19:05.725Z,15.20
2022-09-16T07:21:32.921Z,15.20
2022-09-16T07:24:02.071Z,15.20
2022-09-16T07:26:31.111Z,15.20
2022-09-16T07:29:00.609Z,15.10
2022-09-16T07:31:30.212Z,15.00
2022-09-16T07:34:03.443Z,15.00
2022-09-16T07:36:36.768Z,14.90
2022-09-16T07:39:04.893Z,14.80
2022-09-16T07:41:38.052Z,14.70
2022-09-16T07:44:07.460Z,14.80
2022-09-16T07:46:36.654Z,14.70
2022-09-16T07:49:06.577Z,14.70
2022-09-16T07:51:34.028Z,14.70
2022-09-16T07:54:04.357Z,14.70
2022-09-16T07:56:34.678Z,14.70
2022-09-16T07:59:03.645Z,14.80
2022-09-16T08:01:31.288Z,14.80
2022-09-16T08:03:59.909Z,14.90
2022-09-16T08:06:29.520Z,14.90
2022-09-16T08:09:10.171Z,14.90
2022-09-16T08:11:46.980Z,14.90
2022-09-16T08:14:13.935Z,14.90
2022-09-16T08:16:41.260Z,15.00
2022-09-16T08:19:10.065Z,15.00
2022-09-16T08:21:37.141Z,15.00
2022-09-16T08:24:05.265Z,15.10
2022-09-16T08:26:32.644Z,15.10
2022-09-16T08:29:09.402Z,15.10
2022-09-16T08:31:39.235Z,15.10
2022-09-16T08:36:19.981Z,15.20
2022-09-16T08:38:50.208Z,15.20
2022-09-16T08:41:30.396Z,15.30
2022-09-16T08:44:07.382Z,15.40
2022-09-16T08:46:45.611Z,15.50
2022-09-16T08:49:47.087Z,15.60
2022-09-16T08:52:35.725Z,15.70
2022-09-16T08:55:05.708Z,15.90
2022-09-16T08:57:39.102Z,16.00
2022-09-16T09:00:18.251Z,16.00
2022-09-16T09:03:21.197Z,16.10
2022-09-16T09:05:54.578Z,16.20
2022-09-16T09:08:52.290Z,16.30
2022-09-16T09:12:00.075Z,16.30
2022-09-16T09:14:53.247Z,16.20
2022-09-16T09:17:49.233Z,16.20
2022-09-16T09:20:47.342Z,16.20
2022-09-16T09:23:18.845Z,16.10
2022-09-16T09:26:06.558Z,16.10
2022-09-16T09:28:41.679Z,16.10
2022-09-16T09:31:18.962Z,16.10
2022-09-16T09:34:01.184Z,16.30
2022-09-16T09:37:02.310Z,16.60
2022-09-16T09:39:38.314Z,16.80
2022-09-16T09:42:17.310Z,17.10
2022-09-16T09:45:22.364Z,17.40
2022-09-16T09:48:03.946Z,17.50
2022-09-16T09:50:42.364Z,17.70
2022-09-16T09:53:49.833Z,17.80
2022-09-16T09:56:28.443Z,17.80
2022-09-16T09:59:24.603Z,17.70
2022-09-16T10:01:57.400Z,17.70
2022-09-16T10:04:26.178Z,17.60
2022-09-16T10:06:55.942Z,17.60
2022-09-16T10:09:27.804Z,17.70
2022-09-16T10:12:03.316Z,17.70
2022-09-16T10:14:38.848Z,17.60
2022-09-16T10:17:26.701Z,17.50
2022-09-16T10:20:31.421Z,17.40
2022-09-16T10:23:23.533Z,17.20
2022-09-16T10:26:17.209Z,17.00
2022-09-16T10:29:01.043Z,16.80
2022-09-16T10:31:42.237Z,16.60
2022-09-16T10:34:30.212Z,16.50
2022-09-16T10:37:14.310Z,16.40
2022-09-16T10:39:46.470Z,16.70
2022-09-16T10:42:22.044Z,17.00
2022-09-16T10:44:53.713Z,17.40
2022-09-16T10:47:31.881Z,17.90
2022-09-16T10:50:04.169Z,18.30
2022-09-16T10:52:42.385Z,18.50
2022-09-16T10:55:38.905Z,18.60
2022-09-16T10:58:18.569Z,18.80
2022-09-16T11:01:17.229Z,18.90
2022-09-16T11:03:50.413Z,19.00
2022-09-16T11:06:38.200Z,19.00
2022-09-16T11:09:33.419Z,18.90
2022-09-16T11:12:28.497Z,18.60
2022-09-16T11:15:13.772Z,18.30
2022-09-16T11:17:50.085Z,18.00
2022-09-16T11:20:23.626Z,17.60
2022-09-16T11:23:14.613Z,17.20
2022-09-16T11:26:10.828Z,16.60
2022-09-16T11:28:43.234Z,16.00
2022-09-16T11:31:23.049Z,15.60
2022-09-16T11:34:10.812Z,15.20
2022-09-16T11:37:26.413Z,14.90
2022-09-16T11:40:26.246Z,14.50
2022-09-16T11:43:21.631Z,14.30
2022-09-16T11:45:56.681Z,14.10
2022-09-16T11:48:56.168Z,14.00
2022-09-16T11:51:32.326Z,13.90
2022-09-16T11:54:08.618Z,13.80
2022-09-16T11:56:49.564Z,13.70
2022-09-16T11:59:43.049Z,13.60
2022-09-16T12:02:28.299Z,13.50
2022-09-16T12:05:03.564Z,13.50
2022-09-16T12:07:48.907Z,13.50
2022-09-16T12:10:24.953Z,13.50
2022-09-16T12:13:09.690Z,13.50
2022-09-16T12:15:50.852Z,13.50
2022-09-16T12:18:18.404Z,13.50
2022-09-16T12:20:56.991Z,13.50
2022-09-16T12:23:34.907Z,13.50
2022-09-16T12:26:40.265Z,13.50
2022-09-16T12:29:18.575Z,13.50
2022-09-16T12:32:18.188Z,13.40
2022-09-16T12:34:52.089Z,13.40
2022-09-16T12:37:58.988Z,13.40
2022-09-16T12:41:21.633Z,13.40
2022-09-16T12:44:33.941Z,13.40
2022-09-16T12:47:36.942Z,13.40
2022-09-16T12:50:35.232Z,13.40
2022-09-16T12:53:08.185Z,13.40
2022-09-16T12:55:41.200Z,13.40
2022-09-16T12:58:29.599Z,13.40
2022-09-16T13:01:15.136Z,13.40
2022-09-16T13:03:50.605Z,13.40
2022-09-16T13:06:36.834Z,13.50
2022-09-16T13:09:23.259Z,13.50
2022-09-16T13:12:35.446Z,13.50
2022-09-16T13:14:51.953Z,13.60
2022-09-16T13:17:29.616Z,13.60
2022-09-16T13:20:01.113Z,13.60
2022-09-16T13:22:41.064Z,13.60
2022-09-16T13:25:10.466Z,13.60
2022-09-16T13:27:39.885Z,13.70
2022-09-16T13:30:14.801Z,13.70
2022-09-16T13:33:22.926Z,13.70
2022-09-16T13:36:13.618Z,13.60
2022-09-16T13:38:44.041Z,13.50
2022-09-16T13:41:14.304Z,13.40
2022-09-16T13:43:46.838Z,13.40
2022-09-16T13:46:26.927Z,13.30
2022-09-16T13:48:59.671Z,13.30
2022-09-16T13:51:27.031Z,13.20
2022-09-16T13:53:57.789Z,13.10
2022-09-16T13:56:50.818Z,13.00
2022-09-16T13:59:39.478Z,13.00
2022-09-16T14:02:34.078Z,12.90
2022-09-16T14:05:51.925Z,12.90
2022-09-16T14:08:31.261Z,12.80
2022-09-16T14:11:05.865Z,12.80
2022-09-16T14:13:46.977Z,12.80
2022-09-16T14:16:25.670Z,12.70
2022-09-16T14:19:27.914Z,12.70
2022-09-16T14:22:11.433Z,12.70
2022-09-16T14:24:40.540Z,12.60
2022-09-16T14:27:39.477Z,12.60
2022-09-16T14:30:14.842Z,12.50
2022-09-16T14:32:42.082Z,12.50
2022-09-16T14:35:12.172Z,12.40
2022-09-16T14:37:40.262Z,12.40
2022-09-16T14:40:13.866Z,12.40
2022-09-16T14:42:54.153Z,12.40
2022-09-16T14:45:22.286Z,12.40
2022-09-16T14:47:52.635Z,12.40
2022-09-16T14:50:31.007Z,12.40
2022-09-16T14:53:00.445Z,12.40
2022-09-16T14:55:30.192Z,12.40
2022-09-16T14:57:58.488Z,12.40
2022-09-16T15:00:30.063Z,12.30
2022-09-16T15:03:00.570Z,12.30
2022-09-16T15:05:38.126Z,12.30
2022-09-16T15:08:18.568Z,12.30
2022-09-16T15:10:55.451Z,12.30
2022-09-16T15:13:26.407Z,12.30
2022-09-16T15:16:01.861Z,12.30
2022-09-16T15:18:33.160Z,12.40
2022-09-16T15:21:27.969Z,12.40
2022-09-16T15:23:58.568Z,12.40
2022-09-16T15:26:31.359Z,12.50
2022-09-16T15:29:03.652Z,12.40
2022-09-16T15:31:34.824Z,12.40
2022-09-16T15:34:05.298Z,12.40
2022-09-16T15:36:56.353Z,12.40
2022-09-16T15:39:25.412Z,12.40
2022-09-16T15:42:13.593Z,12.40
2022-09-16T15:44:48.287Z,12.40
2022-09-16T15:47:29.031Z,12.40
2022-09-16T15:50:04.608Z,12.40
2022-09-16T15:52:55.903Z,12.40
2022-09-16T15:55:35.264Z,12.30
2022-09-16T15:58:20.486Z,12.30
2022-09-16T16:01:02.718Z,12.30
2022-09-16T16:03:44.937Z,12.20
2022-09-16T16:06:13.107Z,12.20
2022-09-16T16:08:54.814Z,12.30
2022-09-16T16:11:23.488Z,12.30
2022-09-16T16:13:51.259Z,12.30
2022-09-16T16:16:18.922Z,12.20
2022-09-16T16:18:46.673Z,12.20
2022-09-16T16:21:16.201Z,12.20
2022-09-16T16:23:43.551Z,12.20
2022-09-16T16:26:11.802Z,12.20
2022-09-16T16:28:38.899Z,12.20
2022-09-16T16:31:09.351Z,12.20
2022-09-16T16:33:36.544Z,12.20
2022-09-16T16:36:03.988Z,12.20
2022-09-16T16:38:31.033Z,12.20
2022-09-16T16:40:57.994Z,12.20
2022-09-16T16:43:25.116Z,12.20
2022-09-16T16:45:58.306Z,12.20
2022-09-16T16:48:27.925Z,12.20
2022-09-16T16:51:00.727Z,12.20
2022-09-16T16:53:28.911Z,12.20
2022-09-16T16:56:08.492Z,12.20
2022-09-16T16:58:40.310Z,12.20
2022-09-16T17:01:16.502Z,12.10
2022-09-16T17:03:45.978Z,12.20
2022-09-16T17:06:14.339Z,12.20
2022-09-16T17:08:41.191Z,12.10
2022-09-16T17:11:10.816Z,12.10
2022-09-16T17:13:39.299Z,12.10
2022-09-16T17:16:07.316Z,12.10
2022-09-16T17:18:35.908Z,12.10
2022-09-16T17:21:08.801Z,12.00
2022-09-16T17:23:36.298Z,12.00
2022-09-16T17:26:04.844Z,12.00
2022-09-16T17:28:31.796Z,12.00
2022-09-16T17:30:58.956Z,11.90
2022-09-16T17:33:26.423Z,11.90
2022-09-16T17:36:07.298Z,11.80
2022-09-16T17:38:35.057Z,11.70
2022-09-16T17:41:07.637Z,11.70
2022-09-16T17:43:35.387Z,11.60
2022-09-16T17:46:04.293Z,11.60
2022-09-16T17:48:31.940Z,11.60
2022-09-16T17:50:59.826Z,11.50
2022-09-16T17:53:26.768Z,11.50
2022-09-16T17:56:02.604Z,11.50
2022-09-16T17:58:29.659Z,11.50
2022-09-16T18:01:02.860Z,11.40
2022-09-16T18:03:29.769Z,11.40
2022-09-16T18:06:04.621Z,11.40
2022-09-16T18:08:31.714Z,11.30
2022-09-16T18:10:58.705Z,11.30
2022-09-16T18:13:26.190Z,11.20
2022-09-16T18:15:53.638Z,11.20
2022-09-16T18:18:22.723Z,11.10
2022-09-16T18:20:55.101Z,11.00
2022-09-16T18:23:22.645Z,11.00
2022-09-16T18:25:49.820Z,11.00
2022-09-16T18:28:17.207Z,10.90
2022-09-16T18:30:44.600Z,10.90
2022-09-16T18:33:11.795Z,10.80
2022-09-16T18:35:38.924Z,10.80
2022-09-16T18:38:07.448Z,10.80
2022-09-16T18:40:39.650Z,10.80
2022-09-16T18:43:06.870Z,10.80
2022-09-16T18:45:34.276Z,10.70
2022-09-16T18:48:01.530Z,10.70
2022-09-16T18:50:29.493Z,10.70
2022-09-16T18:52:56.853Z,10.70
2022-09-16T18:55:24.203Z,10.70
2022-09-16T18:57:51.597Z,10.60
2022-09-16T19:00:18.523Z,10.60
2022-09-16T19:02:45.606Z,10.60
2022-09-16T19:05:13.170Z,10.60
2022-09-16T19:07:40.399Z,10.50
2022-09-16T19:10:07.707Z,10.60
2022-09-16T19:12:39.094Z,10.60
2022-09-16T19:15:06.931Z,10.50
2022-09-16T19:17:34.358Z,10.50
2022-09-16T19:20:01.863Z,10.50
2022-09-16T19:22:29.728Z,10.50
2022-09-16T19:24:57.079Z,10.50
2022-09-16T19:27:24.261Z,10.40
2022-09-16T19:29:52.163Z,10.40
2022-09-16T19:32:19.439Z,10.40
2022-09-16T19:34:46.315Z,10.30
2022-09-16T19:37:13.245Z,10.30
2022-09-16T19:39:40.003Z,10.30
2022-09-16T19:42:07.551Z,10.30
2022-09-16T19:44:34.694Z,10.30
2022-09-16T19:47:02.450Z,10.30
2022-09-16T19:49:29.312Z,10.30
2022-09-16T19:51:56.446Z,10.30
2022-09-16T19:54:24.227Z,10.20
2022-09-16T19:56:51.967Z,10.30
2022-09-16T19:59:19.757Z,10.20
2022-09-16T20:01:48.122Z,10.20
2022-09-16T20:04:19.359Z,10.30
2022-09-16T20:06:46.317Z,10.30
2022-09-16T20:09:13.520Z,10.30
2022-09-16T20:11:44.754Z,10.30
2022-09-16T20:14:20.499Z,10.30
2022-09-16T20:16:48.908Z,10.30
2022-09-16T20:19:17.328Z,10.30
2022-09-16T20:21:45.041Z,10.30
2022-09-16T20:24:18.510Z,10.30
2022-09-16T20:26:49.446Z,10.30
2022-09-16T20:29:17.914Z,10.30
2022-09-16T20:31:46.801Z,10.30
2022-09-16T20:34:16.084Z,10.30
2022-09-16T20:36:45.808Z,10.20
2022-09-16T20:39:14.020Z,10.20
2022-09-16T20:41:41.682Z,10.20
2022-09-16T20:44:14.120Z,10.20
2022-09-16T20:46:41.469Z,10.20
2022-09-16T20:49:12.584Z,10.20
2022-09-16T20:51:39.389Z,10.20
2022-09-16T20:54:10.064Z,10.20
2022-09-16T20:56:42.247Z,10.20
2022-09-16T20:59:11.884Z,10.20
2022-09-16T21:01:41.790Z,10.20
2022-09-16T21:04:17.157Z,10.20
2022-09-16T21:06:45.517Z,10.20
2022-09-16T21:09:14.901Z,10.20
2022-09-16T21:11:45.172Z,10.20
2022-09-16T21:14:15.209Z,10.20
2022-09-16T21:16:44.371Z,10.30
2022-09-16T21:19:13.390Z,10.30
2022-09-16T21:21:43.655Z,10.30
2022-09-16T21:24:10.813Z,10.30
2022-09-16T21:26:38.979Z,10.30
2022-09-16T21:29:11.194Z,10.30
2022-09-16T21:31:40.937Z,10.30
2022-09-16T21:34:13.133Z,10.30
2022-09-16T21:36:40.427Z,10.20
2022-09-16T21:39:08.705Z,10.20
2022-09-16T21:41:36.238Z,10.20
2022-09-16T21:44:04.194Z,10.10
2022-09-16T21:46:43.145Z,10.10
2022-09-16T21:49:22.406Z,10.10
2022-09-16T21:51:53.980Z,10.10
2022-09-16T21:54:21.889Z,10.00
2022-09-16T21:56:49.842Z,10.00
2022-09-16T21:59:17.660Z,10.00
2022-09-16T22:01:45.855Z,10.00
2022-09-16T22:04:15.567Z,9.90
2022-09-16T22:06:42.963Z,9.80
2022-09-16T22:09:10.739Z,9.70
2022-09-16T22:11:40.742Z,9.70
2022-09-16T22:14:08.120Z,9.60
2022-09-16T22:16:37.507Z,9.60
2022-09-16T22:19:14.491Z,9.70
2022-09-16T22:21:44.335Z,9.70
2022-09-16T22:24:12.011Z,9.60
2022-09-16T22:26:39.520Z,9.70
2022-09-16T22:29:09.126Z,9.60
2022-09-16T22:31:37.977Z,9.60
2022-09-16T22:34:05.286Z,9.60
2022-09-16T22:36:34.582Z,9.50
2022-09-16T22:39:06.266Z,9.50
2022-09-16T22:41:34.309Z,9.40
2022-09-16T22:44:01.724Z,9.30
2022-09-16T22:46:34.677Z,9.20
2022-09-16T22:49:01.709Z,9.20
2022-09-16T22:51:29.167Z,9.10
2022-09-16T22:53:56.584Z,9.10
2022-09-16T22:56:31.941Z,9.00
2022-09-16T22:59:01.671Z,9.00
2022-09-16T23:01:32.062Z,9.00
2022-09-16T23:04:00.814Z,8.90
2022-09-16T23:06:30.098Z,8.90
2022-09-16T23:08:57.968Z,8.80
2022-09-16T23:11:28.721Z,8.80
2022-09-16T23:13:56.840Z,8.80
2022-09-16T23:16:26.960Z,8.70
2022-09-16T23:18:55.538Z,8.70
2022-09-16T23:21:23.221Z,8.70
2022-09-16T23:23:53.085Z,8.70
2022-09-16T23:26:22.661Z,8.70
2022-09-16T23:28:55.362Z,8.70
2022-09-16T23:31:25.929Z,8.60
2022-09-16T23:33:53.486Z,8.60
2022-09-16T23:36:21.175Z,8.60
2022-09-16T23:38:48.207Z,8.60
2022-09-16T23:41:19.596Z,8.60
2022-09-16T23:43:48.148Z,8.50
2022-09-16T23:46:17.554Z,8.50
2022-09-16T23:48:44.712Z,8.50
2022-09-16T23:51:12.705Z,8.50
2022-09-16T23:53:42.228Z,8.60
2022-09-16T23:56:11.067Z,8.60
2022-09-16T23:58:38.830Z,8.60
